Time;durP1;ratioP1;P1;durP2;ratioP2;P2;SDS_P1;SDS_P2;PMS_P1;PMS_P2;Temp;Humidity;BMP_temperature;BMP_pressure;BME280_temperature;BME280_humidity;BME280_pressure;Samples;Min_cycle;Max_cycle;Signal;HPM_P1;HPM_P2
2022/07/03 00:02:01;;;;;;;12.07;8.05;;;;;;;18.77;93.26;101228.25;1642772;86;21578;-76
2022/07/03 00:04:29;;;;;;;13.72;7.40;;;;;;;18.59;94.95;101230.34;1651203;86;21510;-77
2022/07/03 00:06:56;;;;;;;14.45;7.85;;;;;;;20.32;92.40;101225.72;1608516;89;21023;-77
2022/07/03 00:09:23;;;;;;;15.70;7.90;;;;;;;18.59;93.83;101235.55;1620620;87;21086;-77
2022/07/03 00:11:51;;;;;;;13.98;7.25;;;;;;;18.49;95.33;101233.63;1622112;88;21636;-76
2022/07/03 00:14:18;;;;;;;10.43;6.45;;;;;;;18.53;95.23;101232.49;1659022;86;21589;-76
2022/07/03 00:16:46;;;;;;;14.83;8.13;;;;;;;18.52;95.50;101220.41;1645683;86;21663;-76
2022/07/03 00:19:13;;;;;;;15.43;7.62;;;;;;;18.76;94.37;101221.38;1663585;85;21601;-76
2022/07/03 00:21:56;;;;;;;12.90;8.00;;;;;;;18.60;94.86;101225.47;1672448;85;21592;-76
2022/07/03 00:24:46;;;;;;;13.30;7.67;;;;;;;21.11;87.15;101209.38;1649505;86;21118;-78
2022/07/03 00:27:15;;;;;;;13.32;7.22;;;;;;;18.61;93.85;101221.08;1654189;86;21574;-77
2022/07/03 00:29:45;;;;;;;13.72;8.08;;;;;;;18.52;95.09;101226.45;1666588;85;21171;-77
2022/07/03 00:32:19;;;;;;;14.33;9.60;;;;;;;18.52;94.97;101215.19;1654767;85;21518;-76
2022/07/03 00:34:53;;;;;;;17.17;9.48;;;;;;;18.51;95.50;101223.49;1644051;86;21090;-77
2022/07/03 00:37:21;;;;;;;18.50;9.30;;;;;;;18.59;94.97;101213.39;1609045;89;21098;-77
2022/07/03 00:39:48;;;;;;;16.45;9.10;;;;;;;18.54;95.50;101211.54;1619587;87;21038;-76
2022/07/03 00:42:17;;;;;;;12.55;8.53;;;;;;;18.57;94.72;101213.95;1608509;88;21114;-76
2022/07/03 00:44:51;;;;;;;15.13;9.15;;;;;;;21.47;79.83;101211.39;1610380;89;21595;-76
2022/07/03 00:47:21;;;;;;;17.95;9.45;;;;;;;21.65;75.42;101208.62;1645222;86;21089;-77
2022/07/03 00:49:52;;;;;;;14.87;9.20;;;;;;;21.58;74.76;101199.59;1642322;86;21166;-76
2022/07/03 00:52:21;;;;;;;15.05;9.43;;;;;;;21.46;74.35;101204.02;1636315;86;21097;-76
2022/07/03 00:54:57;;;;;;;14.98;9.55;;;;;;;18.92;83.68;101204.73;1645981;86;21084;-76
2022/07/03 00:57:28;;;;;;;12.98;8.73;;;;;;;21.13;78.70;101197.00;1608648;88;21055;-77
2022/07/03 00:59:57;;;;;;;14.55;8.03;;;;;;;18.63;90.41;101198.34;1621109;87;21096;-77
2022/07/03 01:02:44;;;;;;;14.50;8.23;;;;;;;18.48;93.35;101191.56;1654532;86;21581;-75
2022/07/03 01:05:47;;;;;;;13.48;8.53;;;;;;;18.41;94.61;101197.66;1651796;86;21077;-76
2022/07/03 01:08:46;;;;;;;15.60;8.90;;;;;;;21.13;79.21;101184.73;1642873;86;21477;-76
2022/07/03 01:11:40;;;;;;;15.78;8.63;;;;;;;18.50;91.23;101197.04;1671657;84;21070;-76
2022/07/03 01:14:32;;;;;;;19.80;9.05;;;;;;;18.25;95.33;101197.83;1631888;86;21605;-76
2022/07/03 01:17:16;;;;;;;18.73;9.48;;;;;;;18.20;95.90;101202.49;1638871;86;21165;-75
2022/07/03 01:19:48;;;;;;;18.60;9.68;;;;;;;18.31;94.80;101207.86;1647353;86;21566;-76
2022/07/03 01:22:37;;;;;;;13.88;8.33;;;;;;;18.11;96.63;101208.32;1608713;89;21052;-75
2022/07/03 01:25:25;;;;;;;12.78;7.97;;;;;;;18.16;95.67;101208.84;1610421;88;21659;-76
2022/07/03 01:28:07;;;;;;;14.58;8.00;;;;;;;18.10;96.23;101204.03;1646379;86;21062;-76
2022/07/03 01:30:43;;;;;;;13.70;6.78;;;;;;;17.93;97.70;101198.61;1651147;86;22296;-76
2022/07/03 01:33:21;;;;;;;11.95;6.80;;;;;;;17.95;97.39;101198.88;1649493;84;21061;-76
2022/07/03 01:36:08;;;;;;;12.03;7.12;;;;;;;17.90;97.71;101202.70;1647383;86;21034;-77
2022/07/03 01:38:42;;;;;;;17.30;7.25;;;;;;;19.76;90.45;101194.09;1664417;85;21553;-76
2022/07/03 01:41:12;;;;;;;18.10;8.10;;;;;;;20.13;82.57;101201.42;1608661;89;21054;-76
2022/07/03 01:43:55;;;;;;;12.80;8.00;;;;;;;20.05;81.17;101204.20;1620719;87;21054;-76
2022/07/03 01:46:29;;;;;;;12.20;7.30;;;;;;;20.17;80.16;101208.09;1643079;86;21133;-76
2022/07/03 01:48:58;;;;;;;10.23;6.62;;;;;;;20.10;80.35;101208.64;1619410;86;21086;-76
2022/07/03 01:51:29;;;;;;;10.35;6.60;;;;;;;20.13;80.03;101205.78;1618434;87;21063;-77
2022/07/03 01:53:58;;;;;;;10.45;6.62;;;;;;;20.18;79.66;101207.13;1620216;87;21062;-76
2022/07/03 01:56:26;;;;;;;9.38;6.25;;;;;;;20.18;79.13;101204.99;1605317;88;21081;-76
2022/07/03 01:58:53;;;;;;;13.45;7.33;;;;;;;20.21;79.02;101205.61;1608726;88;21063;-76
2022/07/03 02:01:50;;;;;;;9.80;6.78;;;;;;;20.18;78.73;101208.43;1621681;87;21125;-76
2022/07/03 02:04:41;;;;;;;10.00;6.58;;;;;;;20.19;78.61;101201.41;1614252;88;21062;-76
2022/07/03 02:07:14;;;;;;;11.22;7.10;;;;;;;20.25;78.12;101205.36;1640875;86;21055;-76
2022/07/03 02:10:01;;;;;;;10.98;7.85;;;;;;;20.16;78.64;101206.41;1657358;85;21049;-76
2022/07/03 02:12:40;;;;;;;11.35;7.25;;;;;;;20.20;77.96;101203.92;1664493;85;21133;-76
2022/07/03 02:15:10;;;;;;;13.83;7.87;;;;;;;20.23;77.71;101200.72;1644464;86;21180;-76
2022/07/03 02:17:46;;;;;;;13.85;8.18;;;;;;;20.27;77.28;101196.45;1671047;85;21560;-76
2022/07/03 02:20:16;;;;;;;13.50;7.92;;;;;;;20.30;77.06;101197.55;1608394;89;21052;-76
2022/07/03 02:22:48;;;;;;;12.65;7.37;;;;;;;20.27;77.14;101198.23;1619875;87;21070;-75
2022/07/03 02:25:32;;;;;;;14.35;8.43;;;;;;;20.30;77.42;101195.41;1645743;85;21618;-75
2022/07/03 02:28:13;;;;;;;14.47;8.08;;;;;;;20.38;76.67;101195.67;1646094;87;21101;-75
2022/07/03 02:30:43;;;;;;;13.22;8.18;;;;;;;18.04;89.06;101208.33;1649707;85;21109;-76
2022/07/03 02:33:14;;;;;;;14.13;7.45;;;;;;;19.20;84.79;101197.11;1658023;85;21098;-75
2022/07/03 02:35:42;;;;;;;11.73;7.78;;;;;;;18.09;92.90;101201.07;1654228;85;21068;-76
2022/07/03 02:38:22;;;;;;;12.80;7.45;;;;;;;17.93;95.59;101194.70;1645628;86;21073;-75
2022/07/03 02:41:09;;;;;;;9.65;6.83;;;;;;;18.01;96.53;101190.66;1608673;87;21094;-76
2022/07/03 02:44:03;;;;;;;12.33;7.40;;;;;;;18.11;96.17;101193.99;1608703;88;21040;-76
2022/07/03 02:46:53;;;;;;;12.03;6.95;;;;;;;18.18;96.08;101192.64;1622813;86;21117;-75
2022/07/03 02:49:42;;;;;;;10.88;6.35;;;;;;;18.36;94.55;101190.13;1608537;89;21630;-75
2022/07/03 02:52:22;;;;;;;11.10;6.55;;;;;;;18.20;95.25;101198.59;1622636;87;21183;-76
2022/07/03 02:54:52;;;;;;;14.23;6.87;;;;;;;18.26;96.06;101199.96;1619235;88;21149;-76
2022/07/03 02:57:22;;;;;;;9.20;6.72;;;;;;;18.31;96.18;101196.57;1614660;88;21732;-75
2022/07/03 03:00:06;;;;;;;11.05;6.83;;;;;;;18.43;95.73;101197.09;1668541;85;21036;-75
2022/07/03 03:02:53;;;;;;;13.85;7.00;;;;;;;19.14;89.98;101194.93;1674228;85;21021;-77
2022/07/03 03:05:40;;;;;;;12.82;6.90;;;;;;;18.59;94.32;101203.41;1664490;85;21092;-75
2022/07/03 03:08:35;;;;;;;12.50;6.85;;;;;;;18.50;95.44;101200.95;1666851;86;21065;-77
2022/07/03 03:11:09;;;;;;;10.67;6.77;;;;;;;19.49;84.62;101203.41;1636779;87;21119;-76
2022/07/03 03:13:36;;;;;;;13.98;6.97;;;;;;;18.83;93.10;101198.34;1652847;85;21075;-76
2022/07/03 03:16:10;;;;;;;10.82;6.87;;;;;;;18.85;93.91;101196.94;1648003;85;21065;-76
2022/07/03 03:18:40;;;;;;;9.68;6.60;;;;;;;18.99;92.92;101196.36;1654890;85;21133;-76
2022/07/03 03:21:15;;;;;;;12.55;6.47;;;;;;;19.06;93.60;101198.55;1609964;87;21055;-76
2022/07/03 03:23:51;;;;;;;10.72;6.72;;;;;;;19.18;93.84;101197.69;1621247;87;21149;-77
2022/07/03 03:26:28;;;;;;;11.18;6.95;;;;;;;19.27;93.12;101202.77;1608988;88;21065;-76
2022/07/03 03:28:55;;;;;;;9.80;6.83;;;;;;;22.32;79.16;101197.56;1620353;87;21043;-76
2022/07/03 03:31:22;;;;;;;12.20;6.47;;;;;;;20.18;80.24;101192.75;1614646;87;21109;-75
2022/07/03 03:33:51;;;;;;;12.68;6.78;;;;;;;21.71;80.83;101190.27;1599616;87;21097;-76
2022/07/03 03:36:20;;;;;;;11.68;7.40;;;;;;;21.90;72.79;101193.56;1641081;87;21032;-76
2022/07/03 03:38:49;;;;;;;10.30;6.72;;;;;;;20.38;79.09;101196.50;1664167;85;21565;-76
2022/07/03 03:41:16;;;;;;;11.57;7.08;;;;;;;20.02;86.18;101192.20;1658939;85;21137;-76
2022/07/03 03:43:44;;;;;;;17.12;7.08;;;;;;;21.01;81.05;101193.06;1670373;85;21094;-76
2022/07/03 03:46:14;;;;;;;10.20;6.67;;;;;;;20.28;87.08;101192.91;1650009;86;21073;-76
2022/07/03 03:48:41;;;;;;;12.28;7.10;;;;;;;22.53;74.24;101189.23;1608896;89;21076;-76
2022/07/03 03:51:10;;;;;;;10.15;6.37;;;;;;;23.72;71.23;101191.70;1621078;87;21545;-76
2022/07/03 03:53:37;;;;;;;10.28;6.30;;;;;;;23.74;71.45;101194.17;1611429;89;21099;-76
2022/07/03 03:56:10;;;;;;;14.23;6.90;;;;;;;21.41;77.67;101197.81;1649289;87;21109;-76
2022/07/03 03:58:40;;;;;;;8.93;6.33;;;;;;;21.04;83.48;101194.60;1608717;88;21090;-76
2022/07/03 04:01:09;;;;;;;12.35;6.60;;;;;;;21.24;84.32;101189.61;1620596;87;21052;-76
2022/07/03 04:03:37;;;;;;;10.18;6.72;;;;;;;23.70;73.82;101178.33;1612889;87;21061;-76
2022/07/03 04:06:05;;;;;;;12.18;6.25;;;;;;;21.55;80.52;101182.34;1609158;87;21117;-75
2022/07/03 04:08:33;;;;;;;9.65;6.28;;;;;;;24.35;72.34;101175.52;1611606;89;21115;-76
2022/07/03 04:11:01;;;;;;;9.73;6.25;;;;;;;24.70;70.60;101175.39;1623320;87;21086;-76
2022/07/03 04:13:29;;;;;;;10.98;6.30;;;;;;;24.94;68.59;101180.62;1661407;85;21025;-76
2022/07/03 04:15:58;;;;;;;9.05;6.35;;;;;;;22.59;75.03;101182.64;1656882;85;21120;-76
2022/07/03 04:18:25;;;;;;;14.18;6.90;;;;;;;22.11;79.06;101183.93;1654203;86;21038;-76
2022/07/03 04:20:53;;;;;;;11.28;6.30;;;;;;;23.99;77.74;101170.02;1609911;89;21040;-76
2022/07/03 04:23:21;;;;;;;9.75;6.95;;;;;;;22.97;74.28;101183.77;1621085;87;21113;-76
2022/07/03 04:25:48;;;;;;;13.20;6.70;;;;;;;25.53;69.93;101179.87;1619590;87;21027;-76
2022/07/03 04:28:15;;;;;;;13.32;7.12;;;;;;;24.19;75.58;101172.15;1610898;89;21579;-76
2022/07/03 04:30:42;;;;;;;12.60;7.25;;;;;;;23.75;73.77;101174.33;1619312;88;21081;-76
2022/07/03 04:33:09;;;;;;;9.28;6.22;;;;;;;23.20;77.71;101180.52;1652718;86;21056;-75
2022/07/03 04:35:38;;;;;;;13.60;7.00;;;;;;;23.44;78.88;101176.70;1647503;86;21168;-76
2022/07/03 04:38:05;;;;;;;14.58;7.15;;;;;;;23.72;77.80;101185.14;1623346;87;21544;-76
2022/07/03 04:40:33;;;;;;;15.88;7.10;;;;;;;23.88;77.69;101181.97;1619393;88;21565;-76
2022/07/03 04:43:01;;;;;;;12.35;7.22;;;;;;;24.77;73.98;101182.22;1613626;89;21123;-76
2022/07/03 04:45:29;;;;;;;13.08;6.55;;;;;;;24.43;73.97;101181.38;1649916;85;21159;-76
2022/07/03 04:47:56;;;;;;;11.78;6.53;;;;;;;28.16;62.19;101182.92;1658339;85;21043;-76
2022/07/03 04:50:23;;;;;;;9.38;6.45;;;;;;;25.09;67.11;101192.35;1654221;85;21143;-76
2022/07/03 04:52:50;;;;;;;12.60;7.15;;;;;;;25.45;66.83;101185.07;1658001;85;21053;-76
2022/07/03 04:55:17;;;;;;;10.75;6.60;;;;;;;25.23;69.42;101187.13;1672724;85;21069;-76
2022/07/03 04:57:44;;;;;;;14.53;7.28;;;;;;;25.33;69.54;101180.48;1646149;85;21585;-76
2022/07/03 05:00:12;;;;;;;11.90;7.20;;;;;;;25.66;68.28;101174.23;1645989;86;21109;-76
2022/07/03 05:02:39;;;;;;;8.55;6.08;;;;;;;26.64;66.93;101168.42;1647498;86;21037;-75
2022/07/03 05:05:07;;;;;;;9.88;5.37;;;;;;;28.28;60.32;101160.06;1608756;89;21036;-77
2022/07/03 05:07:34;;;;;;;12.53;6.47;;;;;;;26.75;57.54;101166.84;1609822;89;21553;-76
2022/07/03 05:10:01;;;;;;;9.65;5.55;;;;;;;26.53;61.70;101178.73;1650653;86;21612;-76
2022/07/03 05:12:29;;;;;;;8.70;5.40;;;;;;;26.59;60.14;101174.69;1648488;85;21565;-76
2022/07/03 05:14:57;;;;;;;8.18;4.60;;;;;;;26.76;59.44;101170.31;1655907;86;21101;-76
2022/07/03 05:17:24;;;;;;;7.78;4.65;;;;;;;26.92;54.74;101176.98;1608589;89;21040;-77
2022/07/03 05:20:23;;;;;;;10.08;4.30;;;;;;;26.93;55.46;101181.30;1624776;87;21128;-77
2022/07/03 05:22:21;;;;;;;11.40;4.12;;;;;;;27.13;55.35;101174.42;1607061;89;21063;-76
2022/07/03 05:24:48;;;;;;;8.63;4.30;;;;;;;27.10;53.95;101177.40;1647286;86;21151;-76
2022/07/03 05:27:15;;;;;;;11.40;4.03;;;;;;;29.14;49.95;101187.17;1652932;85;21565;-76
2022/07/03 05:29:43;;;;;;;6.72;3.80;;;;;;;27.60;52.93;101183.69;1654180;86;21038;-77
2022/07/03 05:32:10;;;;;;;8.13;4.12;;;;;;;27.49;53.23;101191.42;1652255;85;21102;-78
2022/07/03 05:34:37;;;;;;;5.00;4.17;;;;;;;27.56;52.98;101187.15;1643304;85;21058;-76
2022/07/03 05:37:04;;;;;;;6.20;3.60;;;;;;;28.53;51.19;101182.89;1649457;86;21054;-77
2022/07/03 05:39:32;;;;;;;6.70;3.70;;;;;;;27.97;51.69;101185.39;1650986;86;21517;-77
2022/07/03 05:41:59;;;;;;;7.65;3.37;;;;;;;27.63;52.19;101179.38;1662314;85;21049;-76
2022/07/03 05:44:27;;;;;;;6.80;3.47;;;;;;;27.86;51.11;101179.09;1608257;89;21104;-76
2022/07/03 05:46:54;;;;;;;6.15;3.52;;;;;;;28.50;51.67;101175.77;1615526;88;21101;-76
2022/07/03 05:49:22;;;;;;;5.20;3.20;;;;;;;27.99;52.17;101173.32;1613065;87;21084;-76
2022/07/03 05:51:48;;;;;;;6.00;3.40;;;;;;;28.08;52.45;101171.49;1650920;85;21054;-75
2022/07/03 05:54:15;;;;;;;3.72;3.30;;;;;;;27.95;50.61;101174.14;1612928;87;21051;-77
2022/07/03 05:56:42;;;;;;;5.25;3.22;;;;;;;28.03;51.02;101173.83;1640868;86;21099;-76
2022/07/03 05:59:10;;;;;;;4.95;3.40;;;;;;;27.97;49.53;101170.83;1644838;86;21089;-77
2022/07/03 06:01:38;;;;;;;5.15;3.15;;;;;;;28.00;49.38;101172.81;1649826;85;21046;-75
2022/07/03 06:04:05;;;;;;;5.78;3.27;;;;;;;28.19;49.26;101170.34;1608371;88;21505;-77
2022/07/03 06:06:32;;;;;;;9.83;3.87;;;;;;;28.14;49.18;101172.14;1619450;87;21172;-77
2022/07/03 06:08:59;;;;;;;7.75;2.98;;;;;;;28.32;48.31;101171.96;1659701;86;21057;-77
2022/07/03 06:11:26;;;;;;;8.03;3.08;;;;;;;28.34;48.32;101179.24;1612392;87;21064;-77
2022/07/03 06:13:53;;;;;;;5.72;2.95;;;;;;;31.08;44.28;101171.73;1619837;89;21050;-76
2022/07/03 06:16:22;;;;;;;6.55;2.98;;;;;;;28.80;47.84;101171.55;1607769;88;21088;-78
2022/07/03 06:18:49;;;;;;;5.05;3.00;;;;;;;28.36;48.71;101172.78;1614023;87;21075;-76
2022/07/03 06:21:16;;;;;;;6.15;3.10;;;;;;;28.40;48.59;101168.48;1655349;85;21058;-76
2022/07/03 06:23:45;;;;;;;10.28;3.40;;;;;;;28.40;47.80;101164.51;1661451;85;21092;-77
2022/07/03 06:26:14;;;;;;;6.50;3.45;;;;;;;28.83;47.54;101168.54;1656452;85;21029;-75
2022/07/03 06:28:43;;;;;;;7.92;3.80;;;;;;;28.79;47.29;101167.73;1652498;86;21085;-76
2022/07/03 06:31:11;;;;;;;6.92;3.52;;;;;;;28.77;47.54;101171.88;1608672;89;21028;-77
2022/07/03 06:33:38;;;;;;;8.80;4.08;;;;;;;28.91;47.64;101177.81;1619677;89;21057;-77
2022/07/03 06:36:05;;;;;;;5.80;3.42;;;;;;;28.73;47.01;101172.73;1594486;88;21087;-78
2022/07/03 06:38:33;;;;;;;5.67;3.65;;;;;;;28.59;45.99;101172.59;1614224;87;21592;-76
2022/07/03 06:41:00;;;;;;;6.87;3.62;;;;;;;28.87;46.88;101165.87;1654239;86;21603;-75
2022/07/03 06:43:27;;;;;;;7.45;4.05;;;;;;;28.70;47.21;101160.33;1657126;86;21038;-76
2022/07/03 06:45:55;;;;;;;10.18;4.67;;;;;;;28.98;47.58;101159.89;1649382;87;21066;-76
2022/07/03 06:48:22;;;;;;;6.75;3.67;;;;;;;28.99;46.55;101167.65;1608605;89;21060;-75
2022/07/03 06:50:49;;;;;;;7.75;4.25;;;;;;;29.18;45.72;101160.30;1621517;87;21048;-76
2022/07/03 06:53:16;;;;;;;6.40;3.90;;;;;;;30.85;45.24;101158.55;1605763;88;21109;-77
2022/07/03 06:55:43;;;;;;;8.88;4.47;;;;;;;29.21;46.41;101166.59;1637344;86;21105;-76
2022/07/03 06:58:10;;;;;;;12.33;4.62;;;;;;;28.98;46.74;101165.20;1608477;89;21075;-76
2022/07/03 07:00:38;;;;;;;9.78;4.50;;;;;;;32.56;41.09;101162.74;1618649;87;21110;-76
2022/07/03 07:03:05;;;;;;;6.05;3.33;;;;;;;29.56;44.75;101166.53;1602587;88;21062;-76
2022/07/03 07:05:32;;;;;;;5.40;3.40;;;;;;;29.53;45.98;101160.27;1610188;87;21052;-76
2022/07/03 07:07:59;;;;;;;7.10;4.12;;;;;;;29.69;45.27;101158.81;1625880;86;21000;-75
2022/07/03 07:10:26;;;;;;;7.55;5.25;;;;;;;29.27;46.07;101162.73;1613172;87;21552;-77
2022/07/03 07:12:54;;;;;;;7.03;5.12;;;;;;;29.33;45.75;101155.41;1616185;87;21030;-76
2022/07/03 07:15:21;;;;;;;5.45;4.08;;;;;;;29.33;45.75;101155.41;1649426;85;21006;-76
2022/07/03 07:17:48;;;;;;;4.78;3.77;;;;;;;29.46;45.78;101153.52;1636225;86;21181;-76
2022/07/03 07:20:16;;;;;;;8.23;3.87;;;;;;;29.46;45.78;101153.52;1631200;86;21015;-76
2022/07/03 07:22:43;;;;;;;8.68;4.50;;;;;;;29.74;46.66;101155.14;1625746;86;21103;-78
2022/07/03 07:25:10;;;;;;;6.62;3.95;;;;;;;29.68;46.98;101160.31;1621499;87;21086;-78
2022/07/03 07:27:37;;;;;;;8.95;4.92;;;;;;;29.70;46.57;101153.00;1609850;87;21001;-78
2022/07/03 07:30:05;;;;;;;6.85;4.30;;;;;;;29.70;46.94;101147.69;1635334;85;21025;-75
2022/07/03 07:32:32;;;;;;;6.67;3.85;;;;;;;29.64;46.84;101150.55;1660761;85;21017;-76
2022/07/03 07:34:59;;;;;;;9.08;3.60;;;;;;;29.76;46.25;101153.64;1653800;85;21071;-77
2022/07/03 07:37:26;;;;;;;7.08;3.67;;;;;;;29.87;46.22;101139.14;1634330;84;21075;-76
2022/07/03 07:39:53;;;;;;;4.95;3.40;;;;;;;30.10;46.53;101138.58;1657447;85;21064;-78
2022/07/03 07:42:20;;;;;;;6.85;3.67;;;;;;;30.12;45.31;101145.86;1635162;85;21641;-77
2022/07/03 07:44:48;;;;;;;7.75;3.75;;;;;;;30.06;45.72;101134.64;1652814;87;21038;-76
2022/07/03 07:47:16;;;;;;;4.10;3.40;;;;;;;30.23;46.11;101136.64;1608056;88;21024;-77
2022/07/03 07:49:43;;;;;;;5.00;3.05;;;;;;;30.31;44.02;101135.74;1611390;87;21531;-77
2022/07/03 07:52:11;;;;;;;6.50;3.12;;;;;;;30.18;44.14;101140.34;1649825;85;21080;-76
2022/07/03 07:54:45;;;;;;;3.65;2.80;;;;;;;30.11;43.47;101135.41;1595073;87;21508;-77
2022/07/03 07:57:25;;;;;;;3.58;2.92;;;;;;;30.19;44.26;101142.48;1661451;86;21051;-77
2022/07/03 07:59:53;;;;;;;6.00;3.42;;;;;;;30.15;42.43;101136.70;1659375;84;21063;-77
2022/07/03 08:08:30;;;;;;;7.10;3.30;;;;;;;30.15;42.47;101132.72;1646127;86;21173;-77
2022/07/03 08:11:10;;;;;;;6.58;3.17;;;;;;;30.63;42.75;101129.75;1652309;86;21094;-77
2022/07/03 08:13:48;;;;;;;6.03;3.17;;;;;;;30.45;42.06;101118.98;1627364;88;21122;-76
2022/07/03 08:16:34;;;;;;;4.03;3.30;;;;;;;30.77;41.74;101126.25;1594699;89;21112;-76
2022/07/03 08:19:01;;;;;;;10.23;7.83;;;;;;;30.55;42.44;101115.54;1631422;86;21050;-77
2022/07/03 08:24:32;;;;;;;6.83;2.80;;;;;;;30.69;40.52;101113.88;1650066;85;21186;-77
2022/07/03 08:26:59;;;;;;;5.85;2.87;;;;;;;30.65;40.38;101106.47;1650079;85;21059;-76
2022/07/03 08:29:32;;;;;;;8.85;2.70;;;;;;;30.63;40.44;101113.81;1649174;86;21515;-76
2022/07/03 08:32:00;;;;;;;5.90;3.20;;;;;;;30.68;39.77;101105.60;1652388;86;21125;-76
2022/07/03 08:34:27;;;;;;;6.67;3.10;;;;;;;31.09;39.72;101101.60;1652413;87;21043;-77
2022/07/03 08:36:54;;;;;;;7.10;3.45;;;;;;;32.37;39.32;101097.64;1652811;85;21539;-76
2022/07/03 08:39:21;;;;;;;6.50;3.30;;;;;;;31.49;38.70;101110.83;1652611;85;21571;-76
2022/07/03 08:41:51;;;;;;;6.90;2.92;;;;;;;30.80;39.92;101107.77;1652473;85;21129;-76
2022/07/03 08:44:21;;;;;;;5.30;3.00;;;;;;;31.03;40.98;101110.33;1652793;87;21100;-76
2022/07/03 08:46:51;;;;;;;6.03;3.10;;;;;;;31.20;38.47;101105.08;1651631;84;21510;-75
2022/07/03 08:49:25;;;;;;;4.15;3.37;;;;;;;30.98;39.87;101108.72;1649903;85;21176;-76
2022/07/03 08:51:55;;;;;;;5.55;3.20;;;;;;;31.05;39.28;101108.31;1647405;86;21073;-75
2022/07/03 08:54:22;;;;;;;6.72;3.40;;;;;;;31.15;39.39;101105.65;1608345;87;21040;-75
2022/07/03 08:57:01;;;;;;;6.60;4.08;;;;;;;31.14;39.60;101095.20;1619413;87;21092;-74
2022/07/03 08:59:38;;;;;;;5.62;3.37;;;;;;;30.98;39.51;101094.10;1651149;87;21046;-76
2022/07/03 09:05:16;;;;;;;3.90;3.00;;;;;;;31.22;40.11;101110.21;1646510;86;21546;-75
2022/07/03 09:07:46;;;;;;;5.40;3.25;;;;;;;31.18;39.57;101104.95;1651767;87;21057;-75
2022/07/03 09:10:16;;;;;;;4.78;3.10;;;;;;;31.21;39.60;101105.41;1655405;85;21074;-76
2022/07/03 09:12:49;;;;;;;6.12;3.50;;;;;;;31.37;39.09;101107.00;1654897;84;21112;-77
2022/07/03 09:15:17;;;;;;;7.60;3.55;;;;;;;31.18;39.50;101103.11;1638030;86;21006;-77
2022/07/03 09:17:59;;;;;;;6.10;3.37;;;;;;;31.27;38.91;101098.52;1651791;85;21036;-75
2022/07/03 09:20:41;;;;;;;4.20;2.70;;;;;;;31.11;38.68;101103.56;1566801;90;21089;-77
2022/07/03 09:23:26;;;;;;;5.55;2.80;;;;;;;31.33;38.23;101104.41;1643585;85;20998;-74
2022/07/03 09:26:03;;;;;;;7.05;3.00;;;;;;;31.51;38.80;101110.12;1648913;85;21073;-75
2022/07/03 09:35:56;;;;;;;5.80;3.40;;;;;;;31.80;37.55;101107.50;1621053;87;21797;-78
2022/07/03 09:38:24;;;;;;;8.65;3.17;;;;;;;31.27;38.83;101105.16;1636870;87;21098;-76
2022/07/03 09:44:00;;;;;;;6.87;2.87;;;;;;;31.96;37.50;101089.08;1657908;84;21031;-77
2022/07/03 09:46:31;;;;;;;4.90;2.90;;;;;;;31.70;38.26;101102.50;1649898;85;21030;-76
2022/07/03 09:48:58;;;;;;;5.40;2.87;;;;;;;31.88;37.31;101084.72;1646716;84;21093;-75
2022/07/03 09:51:40;;;;;;;;;;;;;;;;;;;;;
2022/07/03 09:54:16;;;;;;;6.08;2.65;;;;;;;31.68;37.92;101084.05;1620470;86;21547;-76
2022/07/03 09:56:43;;;;;;;6.03;2.55;;;;;;;31.79;38.25;101091.19;1657587;86;21056;-76
2022/07/03 09:59:14;;;;;;;3.45;2.37;;;;;;;31.81;35.98;101081.98;1651309;87;21077;-77
2022/07/03 10:02:08;;;;;;;3.33;2.40;;;;;;;31.87;36.27;101079.06;1609216;87;21055;-76
2022/07/03 10:04:36;;;;;;;6.97;2.95;;;;;;;31.87;35.80;101081.73;1610383;88;21725;-77
2022/07/03 10:07:04;;;;;;;5.15;2.72;;;;;;;32.20;36.12;101075.81;1646148;86;21078;-75
2022/07/03 10:09:34;;;;;;;5.00;2.60;;;;;;;32.06;36.29;101057.63;1607857;89;21037;-76
2022/07/03 10:12:04;;;;;;;3.52;2.40;;;;;;;31.98;36.90;101065.22;1620089;87;21117;-75
2022/07/03 10:14:33;;;;;;;2.85;2.52;;;;;;;32.29;36.20;101063.47;1644208;86;21141;-75
2022/07/03 10:17:01;;;;;;;2.75;2.42;;;;;;;32.29;35.33;101066.13;1645332;86;21136;-75
2022/07/03 10:19:30;;;;;;;8.58;2.62;;;;;;;32.22;35.42;101061.30;1648328;86;21098;-75
2022/07/03 10:22:01;;;;;;;5.47;2.77;;;;;;;32.38;35.71;101060.12;1625017;87;21089;-75
2022/07/03 10:24:30;;;;;;;3.67;2.62;;;;;;;32.02;37.01;101057.19;1617555;86;21108;-75
2022/07/03 10:26:59;;;;;;;4.60;2.33;;;;;;;32.04;35.97;101059.66;1619426;87;21630;-74
2022/07/03 10:29:28;;;;;;;5.75;2.85;;;;;;;32.26;36.34;101057.70;1643701;86;21630;-75
2022/07/03 10:31:57;;;;;;;5.12;2.50;;;;;;;32.29;34.77;101053.33;1637681;86;21561;-75
2022/07/03 10:34:26;;;;;;;5.33;2.52;;;;;;;32.59;34.31;101042.42;1648478;86;21057;-75
2022/07/03 10:37:03;;;;;;;3.77;2.50;;;;;;;32.62;34.77;101045.48;1643514;87;21092;-75
2022/07/03 10:39:56;;;;;;;8.55;2.80;;;;;;;32.07;35.06;101041.42;1607885;87;21622;-75
2022/07/03 10:45:17;;;;;;;3.60;2.80;;;;;;;32.12;35.56;101039.02;1647013;87;21069;-75
2022/07/03 10:47:49;;;;;;;4.03;2.40;;;;;;;31.80;36.14;101036.95;1608989;89;21516;-73
2022/07/03 10:50:23;;;;;;;4.37;2.77;;;;;;;32.23;34.65;101035.47;1613192;88;21126;-74
2022/07/03 10:52:51;;;;;;;5.05;2.58;;;;;;;32.53;35.98;101031.49;1609163;88;21072;-73
2022/07/03 10:55:19;;;;;;;5.80;2.83;;;;;;;32.44;35.42;101032.70;1669016;85;21116;-76
2022/07/03 10:58:08;;;;;;;3.58;2.72;;;;;;;32.55;34.99;101041.98;1648577;86;21061;-74
2022/07/03 11:00:56;;;;;;;6.17;3.00;;;;;;;32.63;34.88;101039.66;1648826;85;21061;-74
2022/07/03 11:03:57;;;;;;;4.92;2.62;;;;;;;32.79;34.62;101033.12;1671731;86;21237;-74
2022/07/03 11:06:49;;;;;;;6.37;2.58;;;;;;;32.69;34.96;101038.86;1644362;85;21061;-74
2022/07/03 11:09:18;;;;;;;3.80;2.40;;;;;;;32.72;34.32;101033.11;1646742;86;21062;-75
2022/07/03 11:11:57;;;;;;;3.27;2.50;;;;;;;32.48;33.65;101033.11;1608768;89;21579;-75
2022/07/03 11:14:30;;;;;;;4.42;2.70;;;;;;;32.62;34.91;101026.83;1664921;85;21072;-75
2022/07/03 11:17:21;;;;;;;4.05;2.65;;;;;;;32.59;36.20;101028.58;1664316;85;21116;-73
2022/07/03 11:23:02;;;;;;;4.15;2.47;;;;;;;33.20;35.25;101019.68;1646644;86;21584;-73
2022/07/03 11:25:41;;;;;;;5.65;2.90;;;;;;;32.90;33.68;101025.88;1660908;85;21135;-75
2022/07/03 11:28:10;;;;;;;5.20;2.47;;;;;;;32.56;34.81;101023.63;1632579;87;21111;-74
2022/07/03 11:31:16;;;;;;;4.28;2.80;;;;;;;32.57;34.80;101009.81;1617632;87;21048;-74
2022/07/03 11:33:53;;;;;;;4.05;2.58;;;;;;;32.98;34.05;101013.67;1634945;86;21237;-75
2022/07/03 11:36:35;;;;;;;5.83;2.60;;;;;;;32.73;34.97;101010.26;1664530;85;21565;-75
2022/07/03 11:39:08;;;;;;;2.87;2.55;;;;;;;33.31;35.32;101003.06;1658534;86;21053;-75
2022/07/03 11:41:40;;;;;;;6.87;2.67;;;;;;;32.71;33.90;101009.64;1607929;89;21628;-74
2022/07/03 11:44:10;;;;;;;6.17;2.72;;;;;;;33.22;34.22;101009.63;1614980;88;21060;-74
2022/07/03 11:46:40;;;;;;;3.00;2.60;;;;;;;33.27;34.15;101000.50;1656216;85;21525;-74
2022/07/03 11:49:24;;;;;;;5.47;2.80;;;;;;;33.22;33.67;101006.95;1667591;85;21561;-75
2022/07/03 11:52:00;;;;;;;4.30;2.67;;;;;;;33.20;34.23;100999.67;1673979;85;21091;-75
2022/07/03 11:54:41;;;;;;;3.45;2.45;;;;;;;32.99;34.98;101006.48;1651219;86;21073;-74
2022/07/03 11:57:14;;;;;;;3.05;2.70;;;;;;;33.42;34.03;100999.47;1631216;86;21082;-76
2022/07/03 11:59:41;;;;;;;3.33;2.17;;;;;;;33.49;32.72;100994.41;1651906;85;21077;-74
2022/07/03 12:02:08;;;;;;;5.00;2.60;;;;;;;33.22;33.66;100988.80;1653776;86;21018;-74
2022/07/03 12:04:38;;;;;;;5.53;2.47;;;;;;;33.79;32.59;100986.48;1608456;89;21052;-73
2022/07/03 12:07:05;;;;;;;4.80;2.67;;;;;;;33.74;33.10;100983.12;1609207;88;21084;-74
2022/07/03 12:09:36;;;;;;;4.50;2.80;;;;;;;33.88;33.36;100978.05;1646673;85;21390;-74
2022/07/03 12:12:07;;;;;;;4.03;2.65;;;;;;;33.71;33.56;100983.00;1650237;85;21113;-73
2022/07/03 12:14:54;;;;;;;5.45;2.58;;;;;;;33.99;32.88;100979.23;1663412;85;21060;-73
2022/07/03 12:17:26;;;;;;;6.30;2.83;;;;;;;33.63;33.86;100966.39;1663402;85;21096;-73